Home > Products > Valid Products > TAF

000
FTUS46 KPDT 020520
TAFRDM
TAF
KRDM 020520Z 0206/0306 31008KT P6SM SCT120 BKN200
     FM020900 16004KT P6SM FEW120 SCT150
     FM021600 33006KT P6SM SCT120 BKN200
     FM022200 32010G17KT P6SM SCT120 BKN150
     FM030300 31008KT P6SM SCT150 BKN260=



000
FTUS46 KPDT 020520
TAFDLS
TAF
KDLS 020520Z 0206/0306 VRB03KT P6SM FEW150 SCT250
     FM021200 32007KT P6SM FEW150 SCT250
     FM021500 31008KT P6SM SCT150 BKN250
     FM022000 33008G15KT P6SM VCTS SCT100CB BKN200
     FM030500 31007KT P6SM SCT120 BKN250=



000
FTUS46 KPDT 020520
TAFPSC
TAF
KPSC 020520Z 0206/0306 VRB05KT P6SM FEW250
     FM021200 VRB05KT P6SM FEW150 SCT250
     FM022100 35006KT P6SM SCT150 BKN250
     FM030500 VRB04KT P6SM FEW250=



000
FTUS46 KPDT 020520
TAFALW
TAF
KALW 020520Z 0206/0306 12007KT P6SM FEW250
     FM021200 21006KT P6SM FEW250
     FM021800 24008KT P6SM FEW150 SCT250
     FM030500 14005KT P6SM FEW250=



000
FTUS46 KPDT 020520
TAFDLS
TAF
KDLS 020520Z 0206/0306 32008KT P6SM FEW150 SCT250
     FM021200 32007KT P6SM FEW150 SCT250
     FM021500 31008KT P6SM SCT150 BKN250
     FM022000 33008G15KT P6SM VCTS SCT100CB BKN200
     FM030500 31007KT P6SM SCT120 BKN250=



000
FTUS46 KPDT 020520
TAFPDT
TAF
KPDT 020520Z 0206/0306 VRB05KT P6SM FEW250
     FM021200 16005KT P6SM SCT150 BKN250
     FM021800 32009KT P6SM FEW120 BKN150
     FM030300 31007KT P6SM SCT250=



000
FTUS46 KPDT 020520
TAFYKM
TAF
KYKM 020520Z 0206/0306 32007KT P6SM FEW250
     FM021200 28007KT P6SM SCT250
     FM022100 10004KT P6SM FEW150 SCT250
     FM030500 28007KT P6SM FEW250=



000
FTUS46 KPDT 012330
TAFDLS
TAF
KDLS 012330Z 0200/0224 33008G15KT P6SM FEW150 SCT200
     FM021200 32007KT P6SM FEW120 SCT150
     FM021500 31008G15KT P6SM SCT120 BKN150
     FM022000 33011KT P6SM VCSH SCT100 BKN150=



000
FTUS46 KPDT 012330
TAFPSC
TAF
KPSC 012330Z 0200/0224 VRB05KT P6SM SCT250
     FM021200 VRB05KT P6SM FEW150 BKN200=



000
FTUS46 KPDT 012330
TAFYKM
TAF
KYKM 012330Z 0200/0224 12006KT P6SM SCT250
     FM020400 29010KT P6SM FEW200
     FM021200 28007KT P6SM SCT200
     FM021900 10004KT P6SM FEW150 SCT200=



000
FTUS46 KPDT 012330
TAFRDM
TAF
KRDM 012330Z 0200/0224 33010KT P6SM SCT150 BKN250
     FM020400 31008KT P6SM SCT120 BKN200
     FM020900 16004KT P6SM FEW120 SCT150
     FM021600 33006KT P6SM SCT120 BKN200
     FM022200 32010G17KT P6SM SCT120 BKN180=



000
FTUS46 KPDT 012330
TAFALW
TAF
KALW 012330Z 0200/0224 25009KT P6SM FEW250
     FM020300 14009KT P6SM FEW180 SCT250
     FM021200 19008KT P6SM FEW150 SCT200
     FM021600 24007KT P6SM FEW150 SCT200=



000
FTUS46 KPDT 012330
TAFPDT
TAF
KPDT 012330Z 0200/0224 33009KT P6SM SCT300
     FM020500 14007KT P6SM FEW150 SCT200
     FM021200 16005KT P6SM SCT150 BKN200
     FM021700 32009KT P6SM FEW120 BKN150=



000
FTUS46 KPDT 011903 AAA
TAFPSC
TAF AMD
KPSC 011903Z 0119/0218 35003KT 6SM FU SCT050
     FM012000 32005KT 6SM HZ SCT250
     FM020500 35004KT P6SM SCT200
     FM021500 VRB03KT P6SM FEW150 SCT200=



000
FTUS46 KPDT 011903 AAA
TAFPSC
TAF AMD
KPSC 011903Z 0119/0218 35003KT 6SM FU SCT050
     FM012000 32005KT 6SM HZ SCT250
     FM020500 35004KT P6SM SCT200
     FM021500 VRB03KT P6SM FEW150 SCT200=



000
FTUS46 KPDT 011720
TAFPSC
TAF
KPSC 011720Z 0118/0218 35003KT 6SM FU SCT030 BKN050
      TEMPO 0118/0119 5SM FU BKN020
     FM012000 32005KT 6SM HZ SCT250
     FM020500 35004KT P6SM SCT200
     FM021500 VRB03KT P6SM FEW150 SCT200=



000
FTUS46 KPDT 011720
TAFALW
TAF
KALW 011720Z 0118/0218 23009KT P6SM FEW250
     FM020300 14007KT P6SM FEW180 SCT250
     FM021200 19008KT P6SM FEW150 SCT200
     FM021500 22009KT P6SM FEW150 SCT200=



000
FTUS46 KPDT 011720
TAFRDM
TAF
KRDM 011720Z 0118/0218 32005KT P6SM FEW150 BKN250
     FM012000 34011KT P6SM SCT150 BKN250
     FM020400 32008G15KT P6SM SCT120 BKN200
     FM020900 16004KT P6SM SCT150
     FM021600 VRB03KT P6SM SCT150 BKN250=



000
FTUS46 KPDT 011720
TAFPDT
TAF
KPDT 011720Z 0118/0218 29008KT P6SM SKC
     FM020100 33009KT P6SM FEW250
     FM020500 14007KT P6SM SCT200
     FM021200 16005KT P6SM SCT150 BKN200=



000
FTUS46 KPDT 011720
TAFDLS
TAF
KDLS 011720Z 0118/0218 31008KT P6SM SKC
     FM012200 33008G15KT P6SM FEW180 SCT250
     FM021500 31008G15KT P6SM SCT120 BKN150=



000
FTUS46 KPDT 011720
TAFRDM
TAF
KRDM 011720Z 0118/0218 32005KT P6SM FEW150 BKN250
     FM012000 34011KT P6SM SCT150 BKN250
     FM020400 32008G15KT P6SM SCT120 BKN200
     FM020900 16004KT P6SM SCT150
     FM021600 VRB03KT P6SM SCT150 BKN250=



000
FTUS46 KPDT 011720
TAFPSC
TAF
KPSC 011720Z 0118/0218 35003KT 6SM FU SCT030 BKN050
      TEMPO 0118/0119 5SM FU BKN020
     FM012000 32005KT 6SM HZ SCT250
     FM020500 35004KT P6SM SCT200
     FM021500 VRB03KT P6SM FEW150 SCT200=



000
FTUS46 KPDT 011720
TAFDLS
TAF
KDLS 011720Z 0118/0218 31008KT P6SM SKC
     FM012200 33008G15KT P6SM FEW180 SCT250
     FM021500 31008G15KT P6SM SCT120 BKN150=



000
FTUS46 KPDT 011720
TAFYKM
TAF
KYKM 011720Z 0118/0218 28005KT P6SM SKC
     FM012000 12006KT P6SM SCT250
     FM020400 29010KT P6SM SKC
     FM021200 26007KT P6SM SCT200=



000
FTUS46 KPDT 011720
TAFALW
TAF
KALW 011720Z 0118/0218 23009KT P6SM FEW250
     FM020300 14007KT P6SM FEW180 SCT250
     FM021200 19008KT P6SM FEW150 SCT200
     FM021500 22009KT P6SM FEW150 SCT200=



000
FTUS46 KPDT 011720
TAFPDT
TAF
KPDT 011720Z 0118/0218 29008KT P6SM SKC
     FM020100 33009KT P6SM FEW250
     FM020500 14007KT P6SM SCT200
     FM021200 16005KT P6SM SCT150 BKN200=



000
FTUS46 KPDT 011720
TAFYKM
TAF
KYKM 011720Z 0118/0218 28005KT P6SM SKC
     FM012000 12006KT P6SM SCT250
     FM020400 29010KT P6SM SKC
     FM021200 26007KT P6SM SCT200=



000
FTUS46 KPDT 011601 AAA
TAFPSC
TAF AMD
KPSC 011601Z 0116/0212 VRB03KT P6SM SKC
     FM011730 36003KT 6SM FU SCT030 BKN050
     FM012000 32005KT P6SM SCT250
     FM020500 VRB05KT P6SM SKC=



000
FTUS46 KPDT 011140
TAFPSC
TAF
KPSC 011140Z 0112/0212 16005KT P6SM SKC
     FM011500 VRB03KT P6SM SKC
     FM012100 32005KT P6SM SCT250
     FM020500 VRB05KT P6SM SKC=



000
FTUS46 KPDT 011140
TAFRDM
TAF
KRDM 011140Z 0112/0212 16006KT P6SM FEW150
     FM011500 VRB06KT P6SM FEW150
     FM012000 34009KT P6SM FEW130 BKN170
     FM020500 32008G15KT P6SM SCT150 BKN200=



000
FTUS46 KPDT 011140
TAFPDT
TAF
KPDT 011140Z 0112/0212 15006KT P6SM FEW250
     FM011500 13005KT P6SM FEW250
     FM011900 31009KT P6SM FEW150 SCT250
     FM020500 31007KT P6SM SKC=



000
FTUS46 KPDT 011140
TAFDLS
TAF
KDLS 011140Z 0112/0212 31010KT P6SM SKC
     FM012200 33014G22KT P6SM FEW180 SCT250
     FM020500 31008G15KT P6SM SKC=



000
FTUS46 KPDT 011140
TAFYKM
TAF
KYKM 011140Z 0112/0212 30005KT P6SM SKC
     FM011600 VRB05KT P6SM SKC
     FM012000 12005KT P6SM SCT250
     FM020500 32008KT P6SM SKC=



000
FTUS46 KPDT 011140
TAFALW
TAF
KALW 011140Z 0112/0212 14006KT P6SM SKC
     FM011800 23007KT P6SM FEW250
     FM020500 23005KT P6SM SKC=



000
FTUS46 KPDT 011046 AAA
TAFDLS
TAF AMD
KDLS 011046Z 0111/0206 32012KT P6SM SKC
     FM011200 31010KT P6SM SKC
     FM012200 33014G22KT P6SM FEW180 SCT250
     FM020500 31008G15KT P6SM SKC=



000
FTUS46 KPDT 011046 AAA
TAFDLS
TAF AMD
KDLS 011046Z 0111/0206 32012KT P6SM SKC
     FM011200 31010KT P6SM SKC
     FM012200 33014G22KT P6SM FEW180 SCT250
     FM020500 31008G15KT P6SM SKC=



000
FTUS46 KPDT 010520
TAFYKM
TAF
KYKM 010520Z 0106/0206 28007KT P6SM FEW250
     FM010900 28007KT P6SM SKC
     FM011600 VRB05KT P6SM SKC
     FM012000 12005KT P6SM SCT250
     FM020500 32008KT P6SM SKC=



000
FTUS46 KPDT 010520
TAFYKM
TAF
KYKM 010520Z 0106/0206 28007KT P6SM FEW250
     FM010900 28007KT P6SM SKC
     FM011600 VRB05KT P6SM SKC
     FM012000 12005KT P6SM SCT250
     FM020500 32008KT P6SM SKC=



000
FTUS46 KPDT 010520
TAFALW
TAF
KALW 010520Z 0106/0206 14006KT P6SM FEW250
     FM010900 16006KT P6SM SKC
     FM011800 23007KT P6SM FEW250
     FM020500 23005KT P6SM SKC=



000
FTUS46 KPDT 010520
TAFPDT
TAF
KPDT 010520Z 0106/0206 29008KT P6SM FEW250
     FM011500 13004KT P6SM FEW250
     FM011900 31009KT P6SM FEW150 SCT250
     FM020500 31007KT P6SM SKC=



000
FTUS46 KPDT 010520
TAFDLS
TAF
KDLS 010520Z 0106/0206 32008G15KT P6SM FEW250
     FM010900 31008KT P6SM SKC
     FM011200 31007KT P6SM FEW250
     FM012000 33012KT P6SM FEW180 SCT250
     FM020500 31008G15KT P6SM SKC=



000
FTUS46 KPDT 010520
TAFRDM
TAF
KRDM 010520Z 0106/0206 16006KT P6SM FEW150
     FM010900 16004KT P6SM FEW250
     FM011900 34009KT P6SM FEW150 SCT200
     FM020500 32008G15KT P6SM SCT150 BKN200=



000
FTUS46 KPDT 010520
TAFALW
TAF
KALW 010520Z 0106/0206 14006KT P6SM FEW250
     FM010900 16006KT P6SM SKC
     FM011800 23007KT P6SM FEW250
     FM020500 23005KT P6SM SKC=



000
FTUS46 KPDT 010520
TAFPDT
TAF
KPDT 010520Z 0106/0206 29008KT P6SM FEW250
     FM011500 13004KT P6SM FEW250
     FM011900 31009KT P6SM FEW150 SCT250
     FM020500 31007KT P6SM SKC=



000
FTUS46 KPDT 010520
TAFDLS
TAF
KDLS 010520Z 0106/0206 32008G15KT P6SM FEW250
     FM010900 31008KT P6SM SKC
     FM011200 31007KT P6SM FEW250
     FM012000 33012KT P6SM FEW180 SCT250
     FM020500 31008G15KT P6SM SKC=



000
FTUS46 KPDT 010520
TAFPSC
TAF
KPSC 010520Z 0106/0206 16005KT P6SM FEW250
     FM011500 VRB03KT P6SM SKC
     FM012100 32005KT P6SM SCT250
     FM020500 VRB05KT P6SM SKC=



000
FTUS46 KPDT 010520
TAFPSC
TAF
KPSC 010520Z 0106/0206 16005KT P6SM FEW250
     FM011500 VRB03KT P6SM SKC
     FM012100 32005KT P6SM SCT250
     FM020500 VRB05KT P6SM SKC=



000
FTUS46 KPDT 010520
TAFRDM
TAF
KRDM 010520Z 0106/0206 16006KT P6SM FEW150
     FM010900 16004KT P6SM FEW250
     FM011900 34009KT P6SM FEW150 SCT200
     FM020500 32008G15KT P6SM SCT150 BKN200=



000
FTUS46 KPDT 010257 AAB
TAFDLS
TAF AMD
KDLS 010257Z 0103/0124 31008KT P6SM FEW300
     FM010700 31008KT P6SM SKC
     FM011000 31007KT P6SM FEW300
     FM012000 33012KT P6SM FEW180 SCT250=



000
FTUS46 KPDT 010257 AAB
TAFDLS
TAF AMD
KDLS 010257Z 0103/0124 31008KT P6SM FEW300
     FM010700 31008KT P6SM SKC
     FM011000 31007KT P6SM FEW300
     FM012000 33012KT P6SM FEW180 SCT250=



000
FTUS46 KPDT 010208 AAA
TAFDLS
TAF AMD
KDLS 010208Z 0102/0124 27015G25KT P6SM FEW300
     FM010700 31008G15KT P6SM SKC
     FM011000 31007KT P6SM FEW300
     FM012000 33012KT P6SM FEW180 SCT250=



000
FTUS46 KPDT 312320
TAFYKM
TAF
KYKM 312320Z 0100/0124 13008KT P6SM SKC
     FM010300 31009KT P6SM SKC
     FM010900 28011KT P6SM SKC
     FM011600 VRB05KT P6SM SKC
     FM012000 12005KT P6SM SCT300=



000
FTUS46 KPDT 312320
TAFALW
TAF
KALW 312320Z 0100/0124 25007KT P6SM FEW250
     FM010400 12008KT P6SM FEW150
     FM010900 16006KT P6SM SKC
     FM011600 23007KT P6SM FEW200 SCT300=



000
FTUS46 KPDT 312320
TAFPDT
TAF
KPDT 312320Z 0100/0124 32010KT P6SM FEW250
     FM010500 13006KT P6SM FEW150
     FM011500 13004KT P6SM FEW300
     FM011800 31009KT P6SM FEW150 SCT300=



000
FTUS46 KPDT 312320
TAFDLS
TAF
KDLS 312320Z 0100/0124 31012KT P6SM FEW300
     FM010500 31008KT P6SM SKC
     FM011000 31005KT P6SM FEW300
     FM012000 33012KT P6SM FEW180 SCT250=



000
FTUS46 KPDT 312320
TAFPSC
TAF
KPSC 312320Z 0100/0124 VRB05KT P6SM FEW300
     FM011500 VRB03KT P6SM SKC
     FM011900 32005KT P6SM SCT300=



000
FTUS46 KPDT 312320
TAFRDM
TAF
KRDM 312320Z 0100/0124 33010KT P6SM FEW120 SCT150
     FM010400 30006KT P6SM FEW200
     FM010900 16004KT P6SM FEW150 SCT250
     FM011900 34009KT P6SM FEW150 SCT180=



000
FTUS46 KPDT 311720
TAFPDT
TAF
KPDT 311720Z 3118/0118 32007KT P6SM FEW250
     FM010500 13006KT P6SM FEW150
     FM011500 13004KT P6SM FEW300=



000
FTUS46 KPDT 311720
TAFDLS
TAF
KDLS 311720Z 3118/0118 32011KT P6SM FEW300
     FM010300 31008KT P6SM SKC
     FM011000 31006KT P6SM FEW300=



000
FTUS46 KPDT 311720
TAFPSC
TAF
KPSC 311720Z 3118/0118 VRB05KT P6SM FEW300
     FM010400 VRB05KT P6SM FEW200
     FM011500 VRB04KT P6SM FEW300=



000
FTUS46 KPDT 311720
TAFPDT
TAF
KPDT 311720Z 3118/0118 32007KT P6SM FEW250
     FM010500 13006KT P6SM FEW150
     FM011500 13004KT P6SM FEW300=



000
FTUS46 KPDT 311720
TAFYKM
TAF
KYKM 311720Z 3118/0118 26007KT P6SM SKC
     FM312000 13005KT P6SM SKC
     FM010200 31008KT P6SM SKC
     FM010900 28011KT P6SM SKC=



000
FTUS46 KPDT 311720
TAFALW
TAF
KALW 311720Z 3118/0118 25007KT P6SM FEW250
     FM010300 12007KT P6SM FEW150
     FM011000 16006KT P6SM SKC
     FM011500 19006KT P6SM FEW300=



000
FTUS46 KPDT 311720
TAFRDM
TAF
KRDM 311720Z 3118/0118 35007KT P6SM FEW300
     FM312300 34008G15KT P6SM FEW150
     FM010400 30007KT P6SM FEW200
     FM010900 16004KT P6SM FEW150 SCT250=



000
FTUS46 KPDT 311140
TAFYKM
TAF
KYKM 311140Z 3112/0112 28007KT P6SM SKC
     FM312000 13006KT P6SM SKC
     FM010200 31007KT P6SM SKC
     FM010900 30011KT P6SM SKC=



000
FTUS46 KPDT 311140
TAFRDM
TAF
KRDM 311140Z 3112/0112 18006KT P6SM FEW150
     FM311800 35005KT P6SM FEW150 FEW200
     FM010400 32007KT P6SM FEW250
     FM010900 18005KT P6SM FEW150=



000
FTUS46 KPDT 311140
TAFPDT
TAF
KPDT 311140Z 3112/0112 14005KT P6SM SCT250
     FM311700 32007KT P6SM FEW250
     FM010300 33007KT P6SM FEW150
     FM010900 13006KT P6SM FEW170=



000
FTUS46 KPDT 311140
TAFDLS
TAF
KDLS 311140Z 3112/0112 VRB06KT P6SM SKC
     FM311800 33010KT P6SM SKC
     FM010300 30008KT P6SM FEW150=



000
FTUS46 KPDT 311140
TAFALW
TAF
KALW 311140Z 3112/0112 12005KT P6SM SCT250
     FM311800 25007KT P6SM FEW250
     FM010300 23006KT P6SM FEW150
     FM010900 13006KT P6SM FEW170=



000
FTUS46 KPDT 311140
TAFPSC
TAF
KPSC 311140Z 3112/0112 VRB05KT P6SM FEW250
     FM010400 VRB05KT P6SM FEW150=



000
FTUS46 KPDT 310520
TAFYKM
TAF
KYKM 310520Z 3106/0106 28006KT P6SM SKC
     FM311800 13006KT P6SM SKC
     FM010300 30007KT P6SM FEW250=



000
FTUS46 KPDT 310520
TAFPSC
TAF
KPSC 310520Z 3106/0106 VRB04KT P6SM SKC
     FM311200 VRB05KT P6SM SCT200
     FM010300 VRB05KT P6SM FEW250=



000
FTUS46 KPDT 310520
TAFALW
TAF
KALW 310520Z 3106/0106 VRB05KT P6SM SKC
     FM311200 12005KT P6SM SCT200
     FM311800 25007KT P6SM FEW200
     FM010300 23006KT P6SM FEW250=



000
FTUS46 KPDT 310520
TAFRDM
TAF
KRDM 310520Z 3106/0106 33008KT P6SM BKN150
     FM311200 16006KT P6SM SCT150
     FM311800 35005KT P6SM FEW200
     FM010300 32007KT P6SM FEW250=



000
FTUS46 KPDT 310520
TAFPDT
TAF
KPDT 310520Z 3106/0106 04007KT P6SM SKC
     FM311000 15005KT P6SM SCT200
     FM311700 32007KT P6SM FEW200
     FM010300 33007KT P6SM FEW250=



000
FTUS46 KPDT 310520
TAFDLS
TAF
KDLS 310520Z 3106/0106 VRB06KT P6SM SKC
     FM311800 33010KT P6SM SKC
     FM010300 30008KT P6SM FEW250=



000
FTUS46 KPDT 310520
TAFPSC
TAF
KPSC 310520Z 3106/0106 VRB04KT P6SM SKC
     FM311200 VRB05KT P6SM SCT200
     FM010300 VRB05KT P6SM FEW250=



000
FTUS46 KPDT 310520
TAFALW
TAF
KALW 310520Z 3106/0106 VRB05KT P6SM SKC
     FM311200 12005KT P6SM SCT200
     FM311800 25007KT P6SM FEW200
     FM010300 23006KT P6SM FEW250=



000
FTUS46 KPDT 310520
TAFRDM
TAF
KRDM 310520Z 3106/0106 33008KT P6SM BKN150
     FM311200 16006KT P6SM SCT150
     FM311800 35005KT P6SM FEW200
     FM010300 32007KT P6SM FEW250=



000
FTUS46 KPDT 310520
TAFYKM
TAF
KYKM 310520Z 3106/0106 28006KT P6SM SKC
     FM311800 13006KT P6SM SKC
     FM010300 30007KT P6SM FEW250=



000
FTUS46 KPDT 310520
TAFPDT
TAF
KPDT 310520Z 3106/0106 04007KT P6SM SKC
     FM311000 15005KT P6SM SCT200
     FM311700 32007KT P6SM FEW200
     FM010300 33007KT P6SM FEW250=



000
FTUS46 KPDT 310520
TAFDLS
TAF
KDLS 310520Z 3106/0106 VRB06KT P6SM SKC
     FM311800 33010KT P6SM SKC
     FM010300 30008KT P6SM FEW250=



000
FTUS46 KPDT 302320
TAFDLS
TAF
KDLS 302320Z 3100/3124 32008KT P6SM SKC
     FM310500 VRB06KT P6SM SKC
     FM311800 33010KT P6SM SKC=



000
FTUS46 KPDT 302320
TAFPSC
TAF
KPSC 302320Z 3100/3124 VRB06KT P6SM SKC=



000
FTUS46 KPDT 302320
TAFYKM
TAF
KYKM 302320Z 3100/3124 VRB06KT P6SM SKC
     FM310600 28009KT P6SM SKC
     FM311800 VRB06KT P6SM SKC=



000
FTUS46 KPDT 302320
TAFALW
TAF
KALW 302320Z 3100/3124 23010KT P6SM SKC
     FM310400 10007KT P6SM SKC
     FM311500 24006KT P6SM SKC=



000
FTUS46 KPDT 302320
TAFPDT
TAF
KPDT 302320Z 3100/3124 32010KT P6SM SKC
     FM310600 13006KT P6SM SKC
     FM311700 32007KT P6SM SKC=



000
FTUS46 KPDT 302320
TAFRDM
TAF
KRDM 302320Z 3100/3124 34009KT P6SM SKC
     FM310500 VRB04KT P6SM SKC
     FM311800 35005KT P6SM FEW150=



000
FTUS46 KPDT 301720
TAFYKM
TAF
KYKM 301720Z 3018/3118 VRB06KT P6SM SKC
     FM310600 28009KT P6SM SKC=



000
FTUS46 KPDT 301720
TAFPDT
TAF
KPDT 301720Z 3018/3118 34007KT P6SM SKC
     FM310600 13006KT P6SM SKC
     FM311700 32007KT P6SM SKC=



000
FTUS46 KPDT 301720
TAFRDM
TAF
KRDM 301720Z 3018/3118 VRB05KT P6SM SKC
     FM302100 34009KT P6SM SKC
     FM310500 VRB04KT P6SM FEW150=



000
FTUS46 KPDT 301720
TAFDLS
TAF
KDLS 301720Z 3018/3118 VRB06KT P6SM SKC
     FM302100 32008KT P6SM SKC
     FM310500 VRB06KT P6SM SKC=



000
FTUS46 KPDT 301720
TAFYKM
TAF
KYKM 301720Z 3018/3118 VRB06KT P6SM SKC
     FM310600 28009KT P6SM SKC=



000
FTUS46 KPDT 301720
TAFPDT
TAF
KPDT 301720Z 3018/3118 34007KT P6SM SKC
     FM310600 13006KT P6SM SKC
     FM311700 32007KT P6SM SKC=



000
FTUS46 KPDT 301720
TAFRDM
TAF
KRDM 301720Z 3018/3118 VRB05KT P6SM SKC
     FM302100 34009KT P6SM SKC
     FM310500 VRB04KT P6SM FEW150=



000
FTUS46 KPDT 301720
TAFPSC
TAF
KPSC 301720Z 3018/3118 VRB06KT P6SM SKC=



000
FTUS46 KPDT 301720
TAFDLS
TAF
KDLS 301720Z 3018/3118 VRB06KT P6SM SKC
     FM302100 32008KT P6SM SKC
     FM310500 VRB06KT P6SM SKC=



000
FTUS46 KPDT 301720
TAFALW
TAF
KALW 301720Z 3018/3118 28007KT P6SM SKC
     FM310400 10007KT P6SM SKC=



000
FTUS46 KPDT 301120
TAFRDM
TAF
KRDM 301120Z 3012/3112 VRB05KT P6SM SKC
     FM302100 34009KT P6SM SKC
     FM310500 VRB04KT P6SM FEW150=



000
FTUS46 KPDT 301120
TAFPSC
TAF
KPSC 301120Z 3012/3112 VRB06KT P6SM SKC=



000
FTUS46 KPDT 301120
TAFDLS
TAF
KDLS 301120Z 3012/3112 VRB06KT P6SM SKC
     FM302100 32008KT P6SM SKC
     FM310500 VRB06KT P6SM SKC=



000
FTUS46 KPDT 301120
TAFPDT
TAF
KPDT 301120Z 3012/3112 14007KT P6SM SKC
     FM301800 34007KT P6SM SKC
     FM310600 13006KT P6SM SKC=



000
FTUS46 KPDT 301120
TAFALW
TAF
KALW 301120Z 3012/3112 12007KT P6SM SKC
     FM301400 VRB05KT P6SM SKC
     FM301700 25007KT P6SM SKC
     FM310400 10007KT P6SM SKC=



000
FTUS46 KPDT 301120
TAFYKM
TAF
KYKM 301120Z 3012/3112 26007KT P6SM SKC
     FM301600 VRB06KT P6SM SKC
     FM310600 28009KT P6SM SKC=



    US Dept of Commerce
    National Oceanic and Atmospheric Administration
    National Weather Service
    1325 East West Highway
    Silver Spring, MD 20910
    Page Author: NWS Internet Services Team
Disclaimer
Information Quality
Credits
Glossary
Privacy Policy
Freedom of Information Act (FOIA)
About Us
Career Opportunities